Time;durP1;ratioP1;P1;durP2;ratioP2;P2;SDS_P1;SDS_P2;PMS_P1;PMS_P2;Temp;Humidity;BMP_temperature;BMP_pressure;BME280_temperature;BME280_humidity;BME280_pressure;Samples;Min_cycle;Max_cycle;Signal;HPM_P1;HPM_P2
2023/10/11 00:02:30;;;;;;;14.65;5.95;;;;;;;15.56;62.58;95308.34;4209386;28;20575;-70
2023/10/11 00:04:33;;;;;;;12.95;5.90;;;;;;;15.57;62.63;95302.06;4207176;28;20127;-70
2023/10/11 00:06:35;;;;;;;12.18;6.07;;;;;;;15.54;62.80;95305.03;4205866;28;20086;-70
2023/10/11 00:08:40;;;;;;;12.55;6.00;;;;;;;15.51;62.80;95305.41;4208540;28;20490;-71
2023/10/11 00:10:56;;;;;;;12.73;6.05;;;;;;;15.50;62.83;95297.66;4209169;28;20130;-70
2023/10/11 00:12:58;;;;;;;10.43;6.28;;;;;;;15.49;62.87;95301.31;4203837;28;20266;-69
2023/10/11 00:15:00;;;;;;;13.52;6.75;;;;;;;15.46;63.23;95296.34;4209813;28;20059;-70
2023/10/11 00:17:04;;;;;;;13.50;6.30;;;;;;;15.42;63.21;95300.34;4190898;28;20044;-69
2023/10/11 00:19:09;;;;;;;13.18;6.55;;;;;;;15.11;64.15;95301.97;4200508;28;20092;-69
2023/10/11 00:21:15;;;;;;;12.30;6.20;;;;;;;14.86;65.13;95311.84;4212315;28;20051;-68
2023/10/11 00:23:26;;;;;;;13.77;6.78;;;;;;;14.52;66.13;95310.25;4205983;28;20052;-70
2023/10/11 00:25:28;;;;;;;13.05;6.65;;;;;;;14.27;67.66;95303.38;4204442;28;20084;-68
2023/10/11 00:27:30;;;;;;;13.13;6.80;;;;;;;14.22;67.25;95305.66;4211832;28;20048;-68
2023/10/11 00:29:39;;;;;;;11.73;6.63;;;;;;;14.01;67.83;95301.75;4192645;28;20083;-69
2023/10/11 00:31:42;;;;;;;12.50;6.47;;;;;;;13.65;69.29;95303.88;4212145;28;20059;-71
2023/10/11 00:33:44;;;;;;;13.70;6.70;;;;;;;13.45;69.79;95298.91;4211299;28;20067;-69
2023/10/11 00:35:49;;;;;;;10.18;6.72;;;;;;;13.48;69.90;95297.75;4188108;28;20388;-70
2023/10/11 00:37:53;;;;;;;12.10;6.88;;;;;;;13.70;69.54;95294.50;4207621;28;20048;-70
2023/10/11 00:39:56;;;;;;;11.20;6.47;;;;;;;13.93;68.69;95292.00;4201545;28;20062;-70
2023/10/11 00:41:59;;;;;;;15.48;7.00;;;;;;;14.16;67.68;95296.63;4188707;28;20075;-72
2023/10/11 00:44:02;;;;;;;8.07;6.20;;;;;;;14.32;67.20;95301.03;4200819;28;20062;-69
2023/10/11 00:46:08;;;;;;;9.65;5.93;;;;;;;14.47;66.37;95312.53;4202655;28;20529;-69
2023/10/11 00:48:11;;;;;;;10.50;5.80;;;;;;;14.58;65.78;95300.03;4209241;28;20558;-70
2023/10/11 00:50:16;;;;;;;14.05;6.80;;;;;;;14.64;65.26;95297.53;4208295;28;20051;-69
2023/10/11 00:52:21;;;;;;;11.75;6.72;;;;;;;14.70;65.06;95298.69;4209932;28;20498;-68
2023/10/11 00:54:23;;;;;;;13.25;6.50;;;;;;;14.78;64.93;95303.94;4208452;28;20481;-69
2023/10/11 00:56:31;;;;;;;9.50;6.07;;;;;;;14.84;64.74;95305.06;4177015;28;20048;-69
2023/10/11 00:58:38;;;;;;;9.43;6.05;;;;;;;14.87;64.71;95313.47;4210797;28;20462;-70
2023/10/11 01:00:41;;;;;;;9.80;6.70;;;;;;;14.93;64.31;95304.88;4201754;28;20062;-68
2023/10/11 01:02:46;;;;;;;9.00;5.30;;;;;;;14.99;63.73;95302.53;4211338;28;21297;-68
2023/10/11 01:04:49;;;;;;;9.57;6.20;;;;;;;14.98;63.95;95301.72;4193072;28;20090;-72
2023/10/11 01:06:51;;;;;;;8.25;5.90;;;;;;;14.97;63.65;95299.25;4209654;28;20467;-71
2023/10/11 01:08:53;;;;;;;9.80;5.70;;;;;;;14.98;63.83;95309.63;4209985;28;20059;-69
2023/10/11 01:10:55;;;;;;;12.15;6.32;;;;;;;15.00;63.89;95296.28;4208658;28;20067;-69
2023/10/11 01:12:57;;;;;;;10.57;6.60;;;;;;;15.01;63.88;95300.53;4206607;28;20052;-69
2023/10/11 01:14:59;;;;;;;8.82;5.90;;;;;;;14.97;63.96;95305.38;4175643;28;20087;-70
2023/10/11 01:17:02;;;;;;;10.65;6.18;;;;;;;15.00;64.00;95314.75;4210500;28;20043;-70
2023/10/11 01:19:12;;;;;;;;;;;;;;;15.03;63.66;95309.94;4203546;28;20103;-68
2023/10/11 01:21:14;;;;;;;8.77;6.05;;;;;;;15.07;63.35;95305.94;4210037;28;19927;-70
2023/10/11 01:23:16;;;;;;;11.88;6.53;;;;;;;15.05;63.32;95307.94;4192600;28;20063;-69
2023/10/11 01:25:21;;;;;;;11.43;5.78;;;;;;;14.98;63.49;95308.81;4210461;28;20501;-69
2023/10/11 01:27:30;;;;;;;12.07;6.40;;;;;;;14.84;64.00;95315.59;4204274;28;20048;-72
2023/10/11 01:29:37;;;;;;;13.77;6.88;;;;;;;14.63;64.62;95317.00;4209649;28;20043;-68
2023/10/11 01:31:41;;;;;;;14.02;6.70;;;;;;;14.36;65.84;95320.00;4204433;28;20958;-71
2023/10/11 01:33:52;;;;;;;14.20;6.50;;;;;;;14.18;66.64;95318.38;4210000;28;20536;-71
2023/10/11 01:35:54;;;;;;;11.68;6.32;;;;;;;14.15;66.92;95321.31;4211286;28;20068;-69
2023/10/11 01:37:57;;;;;;;13.10;6.53;;;;;;;14.17;66.95;95326.44;4210462;28;20147;-71
2023/10/11 01:39:59;;;;;;;14.27;6.68;;;;;;;14.22;66.53;95326.75;4188696;28;20064;-70
2023/10/11 01:42:02;;;;;;;14.30;6.70;;;;;;;14.19;66.55;95327.09;4192769;28;20492;-69
2023/10/11 01:44:04;;;;;;;13.85;6.13;;;;;;;14.07;67.08;95324.78;4211320;28;20557;-70
2023/10/11 01:46:06;;;;;;;11.13;6.25;;;;;;;13.97;67.21;95328.59;4208700;28;20056;-71
2023/10/11 01:48:10;;;;;;;9.55;6.28;;;;;;;13.84;67.80;95339.59;4203264;28;20044;-70
2023/10/11 01:50:15;;;;;;;12.45;6.32;;;;;;;13.82;68.02;95334.50;4211488;28;20483;-69
2023/10/11 01:52:17;;;;;;;8.80;5.93;;;;;;;13.86;67.84;95341.06;4180386;28;20057;-70
2023/10/11 01:54:22;;;;;;;10.88;5.95;;;;;;;13.91;67.58;95340.59;4179178;28;20945;-69
2023/10/11 01:56:25;;;;;;;8.25;5.88;;;;;;;13.98;67.48;95333.69;4174893;28;20131;-72
2023/10/11 01:58:28;;;;;;;8.27;5.85;;;;;;;14.03;66.65;95341.91;4210148;28;20048;-71
2023/10/11 02:00:31;;;;;;;9.48;6.07;;;;;;;14.13;66.93;95345.22;4209309;28;20047;-69
2023/10/11 02:02:35;;;;;;;7.97;5.00;;;;;;;14.18;66.04;95346.53;4184042;28;20148;-70
2023/10/11 02:04:40;;;;;;;11.80;5.00;;;;;;;14.20;65.77;95342.75;4210646;28;20526;-71
2023/10/11 02:06:42;;;;;;;11.05;5.97;;;;;;;14.23;65.84;95345.03;4192486;28;20572;-68
2023/10/11 02:08:44;;;;;;;9.77;5.43;;;;;;;14.23;65.47;95339.75;4210010;28;20496;-69
2023/10/11 02:10:46;;;;;;;6.57;4.82;;;;;;;14.26;65.18;95339.44;4210840;28;20757;-69
2023/10/11 02:12:49;;;;;;;7.90;5.00;;;;;;;14.30;64.81;95345.19;4209178;28;20062;-71
2023/10/11 02:14:50;;;;;;;7.80;4.50;;;;;;;14.32;65.23;95344.03;4200789;28;20801;-69
2023/10/11 02:16:53;;;;;;;8.35;4.55;;;;;;;14.33;64.95;95342.25;4206310;28;20056;-70
2023/10/11 02:19:00;;;;;;;8.13;4.80;;;;;;;14.36;64.54;95341.88;4210793;28;20059;-70
2023/10/11 02:21:11;;;;;;;;;;;;;;;14.36;64.17;95343.72;4209926;28;20121;-70
2023/10/11 02:23:16;;;;;;;9.77;4.70;;;;;;;14.31;64.64;95346.84;4204486;28;19928;-67
2023/10/11 02:25:19;;;;;;;8.20;5.00;;;;;;;14.27;64.68;95345.53;4201638;28;20055;-69
2023/10/11 02:27:22;;;;;;;10.60;4.75;;;;;;;14.30;64.40;95346.03;4199505;28;20667;-69
2023/10/11 02:29:25;;;;;;;7.18;4.32;;;;;;;14.31;64.18;95352.13;4203697;28;20416;-70
2023/10/11 02:31:33;;;;;;;6.63;4.80;;;;;;;14.11;64.79;95346.34;4207448;28;20054;-69
2023/10/11 02:33:35;;;;;;;6.53;4.70;;;;;;;14.06;64.88;95353.94;4208055;28;20163;-69
2023/10/11 02:35:49;;;;;;;6.97;4.70;;;;;;;14.10;65.43;95355.25;4209101;28;20128;-68
2023/10/11 02:37:51;;;;;;;11.50;4.95;;;;;;;14.19;64.88;95358.72;4210689;28;20060;-72
2023/10/11 02:39:54;;;;;;;6.32;4.80;;;;;;;14.25;64.58;95356.22;4181449;28;20057;-70
2023/10/11 02:41:58;;;;;;;7.80;5.32;;;;;;;14.29;64.60;95360.19;4208246;28;20063;-70
2023/10/11 02:44:02;;;;;;;9.50;4.72;;;;;;;14.34;64.44;95367.59;4194340;28;20162;-68
2023/10/11 02:46:04;;;;;;;8.20;4.90;;;;;;;14.40;64.17;95374.84;4210502;28;20052;-69
2023/10/11 02:48:10;;;;;;;8.02;4.95;;;;;;;14.27;64.59;95372.69;4190948;28;20150;-69
2023/10/11 02:50:12;;;;;;;11.60;5.80;;;;;;;14.05;65.77;95373.38;4210571;28;20051;-70
2023/10/11 02:52:17;;;;;;;8.80;5.55;;;;;;;13.95;66.15;95383.22;4182586;28;20076;-69
2023/10/11 02:54:20;;;;;;;8.85;5.20;;;;;;;13.80;66.63;95378.59;4174761;28;20057;-69
2023/10/11 02:56:24;;;;;;;10.23;5.93;;;;;;;13.69;66.94;95378.91;4200144;28;20060;-69
2023/10/11 02:58:26;;;;;;;;;;;;;;;13.50;67.98;95380.81;4182872;28;20048;-70
2023/10/11 03:00:28;;;;;;;8.55;6.00;;;;;;;13.42;68.10;95383.47;4208287;28;20014;-67
2023/10/11 03:02:30;;;;;;;9.30;5.53;;;;;;;13.45;68.01;95379.69;4209355;28;20113;-71
2023/10/11 03:04:41;;;;;;;8.07;5.43;;;;;;;13.39;68.27;95381.13;4207241;28;20052;-69
2023/10/11 03:06:49;;;;;;;9.77;5.72;;;;;;;13.28;68.55;95381.41;4202827;28;20048;-69
2023/10/11 03:08:53;;;;;;;13.23;6.72;;;;;;;13.18;68.53;95389.41;4209230;28;20115;-70
2023/10/11 03:10:59;;;;;;;9.05;6.50;;;;;;;13.11;68.84;95391.03;4185095;28;20515;-69
2023/10/11 03:13:02;;;;;;;12.00;5.93;;;;;;;13.09;68.99;95390.34;4200892;28;20044;-68
2023/10/11 03:15:19;;;;;;;9.55;7.10;;;;;;;13.14;68.83;95389.88;4207638;28;20113;-69
2023/10/11 03:17:22;;;;;;;14.77;6.80;;;;;;;13.13;68.73;95398.75;4208795;28;20109;-72
2023/10/11 03:19:24;;;;;;;13.50;6.93;;;;;;;13.11;68.89;95398.91;4181697;28;20048;-69
2023/10/11 03:21:33;;;;;;;12.25;7.45;;;;;;;13.23;68.69;95400.28;4209388;28;20060;-67
2023/10/11 03:23:43;;;;;;;11.45;7.13;;;;;;;13.29;68.15;95398.84;4208775;28;20551;-68
2023/10/11 03:25:49;;;;;;;11.85;6.97;;;;;;;13.35;68.25;95400.03;4186326;28;20052;-68
2023/10/11 03:27:52;;;;;;;17.13;7.05;;;;;;;13.44;67.78;95406.97;4196968;28;20056;-69
2023/10/11 03:29:56;;;;;;;14.05;6.75;;;;;;;13.51;67.15;95403.56;4207711;28;20086;-71
2023/10/11 03:31:58;;;;;;;11.23;7.80;;;;;;;13.57;66.68;95402.06;4188909;28;20053;-71
2023/10/11 03:34:11;;;;;;;11.90;7.28;;;;;;;13.63;66.45;95403.25;4205340;28;20131;-70
2023/10/11 03:36:27;;;;;;;13.25;7.80;;;;;;;13.64;66.45;95404.91;4207306;28;20048;-69
2023/10/11 03:38:33;;;;;;;10.05;7.53;;;;;;;13.63;66.45;95405.88;4185859;28;20055;-71
2023/10/11 03:40:34;;;;;;;10.63;6.90;;;;;;;13.65;66.17;95411.81;4203722;28;20398;-71
2023/10/11 03:42:59;;;;;;;9.82;6.43;;;;;;;13.65;65.74;95409.19;4208960;28;20100;-71
2023/10/11 03:45:01;;;;;;;14.07;6.95;;;;;;;13.62;65.80;95414.78;4206822;28;20040;-69
2023/10/11 03:47:08;;;;;;;12.90;6.72;;;;;;;13.58;65.99;95416.06;4207864;28;20134;-69
2023/10/11 03:51:28;;;;;;;17.88;7.40;;;;;;;13.34;66.35;95422.91;4212965;28;20051;-69
2023/10/11 03:53:31;;;;;;;10.23;6.28;;;;;;;13.29;67.03;95426.00;4181797;28;20720;-69
2023/10/11 03:55:34;;;;;;;9.48;7.05;;;;;;;13.27;66.94;95417.41;4196864;28;20045;-68
2023/10/11 03:57:45;;;;;;;9.95;6.63;;;;;;;13.14;67.15;95421.44;4200433;28;20130;-69
2023/10/11 03:59:48;;;;;;;11.55;6.70;;;;;;;13.10;67.28;95421.78;4210304;28;20438;-69
2023/10/11 04:01:50;;;;;;;9.45;7.15;;;;;;;13.15;67.33;95428.38;4211579;28;20059;-73
2023/10/11 04:03:52;;;;;;;12.70;6.68;;;;;;;13.15;66.82;95426.56;4213704;28;20174;-73
2023/10/11 04:05:58;;;;;;;9.90;6.20;;;;;;;13.22;67.07;95427.56;4209079;28;20087;-71
2023/10/11 04:08:05;;;;;;;9.82;6.65;;;;;;;13.30;66.60;95432.09;4200830;28;20056;-71
2023/10/11 04:10:10;;;;;;;12.65;7.53;;;;;;;13.26;66.39;95433.34;4189094;28;20494;-72
2023/10/11 04:12:12;;;;;;;10.02;6.50;;;;;;;13.23;66.55;95428.41;4189283;28;20112;-73
2023/10/11 04:14:24;;;;;;;11.98;7.10;;;;;;;13.22;66.42;95439.91;4193908;28;20056;-70
2023/10/11 04:16:28;;;;;;;16.67;6.78;;;;;;;13.24;66.54;95438.75;4201635;28;20753;-72
2023/10/11 04:18:36;;;;;;;11.60;6.65;;;;;;;13.20;66.76;95440.06;4195095;28;20048;-72
2023/10/11 04:20:40;;;;;;;12.38;6.07;;;;;;;13.24;66.93;95443.22;4212899;28;20071;-72
2023/10/11 04:22:51;;;;;;;8.67;6.60;;;;;;;13.28;66.84;95445.41;4192452;28;20067;-72
2023/10/11 04:24:53;;;;;;;12.30;6.78;;;;;;;13.26;66.97;95447.31;4207119;28;20371;-71
2023/10/11 04:27:24;;;;;;;9.25;6.18;;;;;;;13.26;66.53;95444.69;4198342;28;20094;-71
2023/10/11 04:29:17;;;;;;;11.07;6.90;;;;;;;13.27;66.30;95449.00;4194473;28;20457;-70
2023/10/11 04:31:36;;;;;;;10.80;6.20;;;;;;;13.36;66.34;95442.00;4205151;28;20471;-70
2023/10/11 04:33:44;;;;;;;15.25;7.40;;;;;;;13.39;66.23;95446.09;4182204;28;20053;-70
2023/10/11 04:35:57;;;;;;;11.52;7.05;;;;;;;13.38;65.97;95445.28;4207311;28;20532;-71
2023/10/11 04:38:02;;;;;;;16.23;8.20;;;;;;;13.43;66.12;95445.63;4211982;28;20491;-73
2023/10/11 04:40:33;;;;;;;20.48;7.60;;;;;;;13.44;65.73;95443.81;4211376;28;20051;-72
2023/10/11 04:42:36;;;;;;;13.73;7.63;;;;;;;13.45;65.51;95451.56;4209859;28;20101;-74
2023/10/11 04:44:47;;;;;;;14.00;7.28;;;;;;;13.51;65.61;95450.94;4171921;28;20607;-73
2023/10/11 04:46:57;;;;;;;14.35;7.15;;;;;;;13.54;65.15;95451.59;4195343;28;20080;-72
2023/10/11 04:49:18;;;;;;;15.85;7.10;;;;;;;13.60;65.44;95453.59;4183068;28;20056;-69
2023/10/11 04:53:35;;;;;;;10.80;6.93;;;;;;;13.61;65.30;95463.13;4212137;28;20105;-69
2023/10/11 04:55:38;;;;;;;10.52;6.95;;;;;;;13.66;65.09;95460.88;4191955;28;20395;-72
2023/10/11 04:58:04;;;;;;;10.05;7.25;;;;;;;13.70;64.90;95459.53;4211899;28;20055;-73
2023/10/11 05:00:11;;;;;;;13.93;7.13;;;;;;;13.70;64.91;95457.75;4199373;28;20510;-73
2023/10/11 05:02:18;;;;;;;15.00;6.97;;;;;;;13.75;64.59;95454.63;4209371;28;20138;-71
2023/10/11 05:04:27;;;;;;;12.40;7.05;;;;;;;13.80;64.62;95460.22;4210571;28;20080;-72
2023/10/11 05:06:39;;;;;;;16.52;6.70;;;;;;;13.89;64.73;95467.16;4202374;28;20450;-72
2023/10/11 05:08:51;;;;;;;12.65;6.95;;;;;;;13.91;64.11;95469.66;4212107;28;20573;-76
2023/10/11 05:11:02;;;;;;;14.07;6.68;;;;;;;13.99;64.24;95479.38;4209097;28;20484;-72
2023/10/11 05:13:05;;;;;;;16.00;6.63;;;;;;;13.99;64.10;95472.31;4184873;28;20059;-71
2023/10/11 05:15:08;;;;;;;13.32;7.90;;;;;;;14.04;64.13;95479.72;4210959;28;20070;-71
2023/10/11 05:19:20;;;;;;;14.35;7.07;;;;;;;14.16;63.52;95483.72;4212162;28;20051;-72
2023/10/11 05:21:26;;;;;;;15.57;7.22;;;;;;;14.18;63.50;95475.66;4208218;28;20468;-71
2023/10/11 05:25:58;;;;;;;9.38;7.05;;;;;;;14.24;63.52;95490.78;4208433;28;20086;-68
2023/10/11 05:32:36;;;;;;;12.52;7.53;;;;;;;14.31;62.96;95482.09;4211594;28;20087;-72
2023/10/11 05:51:17;;;;;;;13.02;5.97;;;;;;;14.89;62.03;95485.59;4199730;28;20048;-72
2023/10/11 05:53:24;;;;;;;14.77;7.13;;;;;;;14.95;61.46;95490.19;4207426;28;20135;-73
2023/10/11 05:55:26;;;;;;;12.10;6.45;;;;;;;15.07;61.62;95490.66;4189678;28;20154;-73
2023/10/11 05:57:29;;;;;;;14.18;7.22;;;;;;;15.12;60.83;95492.81;4209873;28;20135;-71
2023/10/11 05:59:35;;;;;;;20.17;8.20;;;;;;;15.08;60.82;95497.59;4168050;28;20068;-70
2023/10/11 06:01:37;;;;;;;12.30;7.30;;;;;;;15.02;61.01;95498.28;4193268;28;20084;-73
2023/10/11 06:03:39;;;;;;;11.30;7.78;;;;;;;15.01;61.13;95501.88;4210564;28;20048;-73
2023/10/11 06:05:42;;;;;;;15.32;7.53;;;;;;;15.08;60.69;95505.53;4200117;28;20052;-73
2023/10/11 06:07:44;;;;;;;13.52;7.07;;;;;;;14.96;60.83;95506.84;4193280;28;20052;-73
2023/10/11 06:09:52;;;;;;;21.85;7.60;;;;;;;14.96;60.18;95509.50;4190543;28;20439;-71
2023/10/11 06:11:57;;;;;;;14.20;8.27;;;;;;;14.97;60.97;95518.22;4207889;28;20051;-72
2023/10/11 06:14:04;;;;;;;27.60;8.13;;;;;;;14.67;61.90;95525.81;4210465;28;20056;-72
2023/10/11 06:16:07;;;;;;;15.00;7.35;;;;;;;14.53;61.65;95535.97;4207847;28;20048;-70
2023/10/11 06:18:35;;;;;;;16.02;8.63;;;;;;;14.03;63.33;95533.41;4202119;28;20076;-74
2023/10/11 06:20:38;;;;;;;17.65;8.40;;;;;;;13.92;64.16;95535.34;4210438;28;20122;-72
2023/10/11 06:22:41;;;;;;;18.95;9.52;;;;;;;13.90;64.47;95545.22;4189105;28;20448;-72
2023/10/11 06:24:44;;;;;;;21.23;9.45;;;;;;;13.80;64.44;95547.13;4178228;28;20076;-71
2023/10/11 06:29:02;;;;;;;24.10;9.98;;;;;;;13.59;64.97;95546.72;4209588;28;20058;-72
2023/10/11 06:31:06;;;;;;;21.80;14.07;;;;;;;13.30;66.24;95540.78;4195538;28;20523;-73
2023/10/11 06:33:12;;;;;;;23.73;13.20;;;;;;;13.45;65.90;95548.13;4196913;28;20075;-72
2023/10/11 06:35:23;;;;;;;25.52;12.10;;;;;;;13.19;67.02;95551.56;4206135;28;20052;-73
2023/10/11 06:37:26;;;;;;;23.25;11.82;;;;;;;13.35;67.22;95550.84;4192776;28;20053;-72
2023/10/11 06:41:50;;;;;;;13.55;9.82;;;;;;;14.00;64.58;95545.06;4203948;28;20056;-74
2023/10/11 06:43:53;;;;;;;18.55;9.45;;;;;;;14.33;63.55;95559.19;4205299;28;20076;-74
2023/10/11 06:45:55;;;;;;;20.35;10.68;;;;;;;14.56;62.11;95561.22;4209944;28;20071;-73
2023/10/11 06:48:06;;;;;;;13.27;8.02;;;;;;;14.71;61.19;95549.06;4211405;28;20064;-73
2023/10/11 06:50:12;;;;;;;17.05;8.45;;;;;;;14.91;60.75;95557.47;4204192;28;20059;-72
2023/10/11 06:52:18;;;;;;;18.13;8.05;;;;;;;15.07;60.59;95553.19;4209927;28;20071;-71
2023/10/11 06:54:23;;;;;;;23.95;8.57;;;;;;;15.25;60.05;95561.75;4208445;28;20061;-74
2023/10/11 06:56:27;;;;;;;22.70;9.20;;;;;;;15.39;59.00;95567.34;4208960;28;20151;-72
2023/10/11 06:58:43;;;;;;;21.58;8.30;;;;;;;15.57;58.79;95560.88;4182932;28;20091;-70
2023/10/11 07:00:46;;;;;;;24.08;8.55;;;;;;;15.77;58.08;95560.53;4176342;28;20120;-72
2023/10/11 07:02:52;;;;;;;18.55;8.25;;;;;;;15.85;57.08;95564.94;4193767;28;20088;-72
2023/10/11 07:04:55;;;;;;;17.10;8.32;;;;;;;15.94;57.06;95561.28;4190031;28;20053;-74
2023/10/11 07:06:58;;;;;;;19.90;8.63;;;;;;;16.06;56.89;95559.91;4206519;28;20064;-72
2023/10/11 07:09:05;;;;;;;16.85;8.32;;;;;;;16.22;56.49;95555.53;4207917;28;20044;-72
2023/10/11 07:11:16;;;;;;;17.45;8.00;;;;;;;16.40;55.56;95555.28;4210732;28;20522;-72
2023/10/11 07:13:19;;;;;;;16.67;8.00;;;;;;;16.53;55.02;95550.25;4204162;28;20432;-73
2023/10/11 07:15:25;;;;;;;12.13;7.88;;;;;;;16.60;54.79;95535.31;4201708;28;20048;-72
2023/10/11 07:17:32;;;;;;;25.27;8.57;;;;;;;16.77;54.41;95538.66;4193026;28;20052;-72
2023/10/11 07:19:36;;;;;;;22.25;7.28;;;;;;;16.89;54.33;95531.19;4208076;28;20044;-72
2023/10/11 07:22:02;;;;;;;17.02;7.38;;;;;;;16.93;54.89;95528.00;4210499;28;20051;-73
2023/10/11 07:24:19;;;;;;;14.73;7.18;;;;;;;16.67;54.13;95530.13;4206571;28;20502;-71
2023/10/11 07:28:38;;;;;;;16.42;6.30;;;;;;;16.97;54.79;95525.81;4206671;28;20070;-73
2023/10/11 07:30:39;;;;;;;9.98;5.85;;;;;;;17.18;54.39;95525.13;4191220;28;20045;-75
2023/10/11 07:32:42;;;;;;;12.35;5.63;;;;;;;17.21;52.81;95522.13;4185477;28;20546;-73
2023/10/11 07:34:48;;;;;;;15.57;5.47;;;;;;;17.24;52.84;95520.94;4209362;28;20059;-74
2023/10/11 07:36:49;;;;;;;;;;;;;;;17.33;53.00;95518.03;4203721;28;20672;-73
2023/10/11 07:38:55;;;;;;;7.70;5.57;;;;;;;17.42;52.66;95524.06;4205556;28;19946;-73
2023/10/11 07:41:04;;;;;;;10.77;5.63;;;;;;;17.53;52.38;95525.44;4186897;28;20048;-73
2023/10/11 07:43:11;;;;;;;10.75;5.60;;;;;;;17.65;52.10;95528.47;4203184;28;20056;-72
2023/10/11 07:45:13;;;;;;;14.48;6.15;;;;;;;17.72;51.58;95534.69;4195379;28;20055;-72
2023/10/11 07:47:16;;;;;;;12.18;5.57;;;;;;;17.69;51.31;95540.34;4202106;28;20437;-74
2023/10/11 07:49:24;;;;;;;12.77;5.72;;;;;;;17.73;51.13;95539.00;4204013;28;20545;-73
2023/10/11 07:51:26;;;;;;;18.75;8.30;;;;;;;17.29;51.79;95540.56;4203877;28;20117;-73
2023/10/11 07:53:29;;;;;;;20.88;6.95;;;;;;;17.23;51.97;95541.31;4205163;28;20063;-73
2023/10/11 07:55:33;;;;;;;9.57;5.63;;;;;;;17.18;51.82;95538.38;4190168;28;20462;-71
2023/10/11 07:57:39;;;;;;;9.82;5.88;;;;;;;17.38;52.00;95541.34;4209168;28;20052;-72
2023/10/11 07:59:41;;;;;;;10.95;5.68;;;;;;;17.61;51.38;95544.72;4208441;28;20052;-72
2023/10/11 08:01:44;;;;;;;10.98;5.60;;;;;;;17.77;50.91;95549.03;4200544;28;20049;-73
2023/10/11 08:03:46;;;;;;;11.05;5.68;;;;;;;17.88;50.72;95547.78;4205702;28;20134;-71
2023/10/11 08:05:53;;;;;;;13.68;5.97;;;;;;;17.99;50.30;95543.84;4199042;28;20382;-74
2023/10/11 08:07:57;;;;;;;10.98;6.00;;;;;;;17.89;50.09;95544.13;4190729;28;20059;-76
2023/10/11 08:10:10;;;;;;;13.65;6.47;;;;;;;17.92;50.73;95546.41;4186578;28;20049;-74
2023/10/11 08:12:14;;;;;;;9.93;5.60;;;;;;;18.13;50.44;95547.47;4208468;28;20297;-74
2023/10/11 08:14:21;;;;;;;10.32;5.85;;;;;;;18.39;49.89;95552.28;4207885;28;20443;-74
2023/10/11 08:16:26;;;;;;;6.65;5.32;;;;;;;18.61;49.29;95555.81;4186667;28;20454;-75
2023/10/11 08:18:28;;;;;;;13.57;5.57;;;;;;;18.65;48.27;95551.78;4209385;28;20155;-74
2023/10/11 08:20:32;;;;;;;18.63;8.90;;;;;;;18.47;48.65;95554.00;4210743;28;20044;-74
2023/10/11 08:22:35;;;;;;;14.15;7.15;;;;;;;18.46;48.94;95555.84;4208876;28;20047;-74
2023/10/11 08:24:46;;;;;;;9.77;5.55;;;;;;;18.19;48.43;95555.50;4209285;28;20052;-74
2023/10/11 08:26:48;;;;;;;10.30;6.40;;;;;;;18.13;49.23;95547.47;4204000;28;20117;-73
2023/10/11 08:28:52;;;;;;;9.50;6.30;;;;;;;18.36;49.12;95558.78;4185996;28;20053;-74
2023/10/11 08:30:58;;;;;;;12.82;6.65;;;;;;;18.39;48.58;95562.88;4186028;28;20051;-74
2023/10/11 08:33:03;;;;;;;11.38;5.95;;;;;;;18.48;48.49;95555.66;4208920;28;20464;-76
2023/10/11 08:35:15;;;;;;;16.52;6.47;;;;;;;18.64;48.49;95552.75;4205053;28;20484;-74
2023/10/11 08:37:17;;;;;;;14.73;5.90;;;;;;;18.90;48.00;95554.88;4189214;28;20220;-74
2023/10/11 08:39:26;;;;;;;9.70;5.38;;;;;;;19.11;47.46;95555.91;4211969;28;20420;-74
2023/10/11 08:41:30;;;;;;;11.15;5.97;;;;;;;19.23;47.10;95547.22;4212636;28;20097;-74
2023/10/11 08:43:36;;;;;;;15.47;5.73;;;;;;;18.37;47.82;95549.00;4206522;28;20059;-72
2023/10/11 08:45:49;;;;;;;15.75;6.68;;;;;;;17.97;49.38;95546.69;4201459;28;20533;-70
2023/10/11 08:47:53;;;;;;;7.68;5.25;;;;;;;17.78;49.62;95539.25;4189774;28;20524;-70
2023/10/11 08:49:59;;;;;;;10.23;6.90;;;;;;;17.99;49.34;95543.84;4187399;28;20049;-73
2023/10/11 08:52:01;;;;;;;22.33;7.57;;;;;;;18.26;49.20;95537.03;4185391;28;20065;-72
2023/10/11 08:54:11;;;;;;;14.07;5.82;;;;;;;18.51;48.82;95539.38;4211970;28;20048;-73
2023/10/11 08:56:17;;;;;;;13.23;6.47;;;;;;;18.78;48.37;95540.50;4210203;28;20051;-72
2023/10/11 08:58:28;;;;;;;11.40;6.80;;;;;;;18.62;48.08;95542.31;4212475;28;20143;-75
2023/10/11 09:00:33;;;;;;;11.80;5.65;;;;;;;18.58;48.28;95548.19;4194426;28;20040;-74
2023/10/11 09:02:35;;;;;;;9.23;6.32;;;;;;;18.78;47.64;95551.94;4183186;28;20100;-71
2023/10/11 09:04:59;;;;;;;9.93;5.80;;;;;;;18.29;48.42;95541.97;4188504;28;20053;-76
2023/10/11 09:07:03;;;;;;;8.53;5.30;;;;;;;17.91;49.17;95549.25;4213333;28;20440;-72
2023/10/11 09:09:05;;;;;;;;;;;;;;;17.73;49.90;95544.28;4214366;28;20063;-75
2023/10/11 09:11:14;;;;;;;11.90;5.82;;;;;;;17.87;49.69;95554.09;4193264;28;19928;-73
2023/10/11 09:13:26;;;;;;;11.27;5.30;;;;;;;18.27;49.14;95543.19;4168659;28;20083;-74
2023/10/11 09:15:42;;;;;;;14.18;6.15;;;;;;;18.55;48.28;95546.75;4191438;28;20147;-74
2023/10/11 09:17:49;;;;;;;12.70;5.90;;;;;;;18.94;47.97;95544.72;4211339;28;20549;-74
2023/10/11 09:19:53;;;;;;;12.95;6.45;;;;;;;19.28;47.63;95543.19;4205917;28;20049;-73
2023/10/11 09:22:03;;;;;;;13.88;6.28;;;;;;;19.37;46.49;95544.66;4182295;28;20540;-73
2023/10/11 09:24:23;;;;;;;12.90;6.72;;;;;;;19.56;46.46;95535.19;4193398;28;20155;-73
2023/10/11 09:26:37;;;;;;;16.65;6.93;;;;;;;19.77;46.24;95545.78;4200311;28;20392;-76
2023/10/11 09:28:56;;;;;;;13.80;6.20;;;;;;;20.00;45.77;95537.53;4200697;28;20554;-74
2023/10/11 09:31:12;;;;;;;7.43;5.13;;;;;;;20.12;45.19;95536.97;4210686;28;20458;-74
2023/10/11 09:33:18;;;;;;;8.43;5.15;;;;;;;20.22;44.92;95530.25;4188785;28;20087;-72
2023/10/11 09:35:26;;;;;;;8.05;5.82;;;;;;;20.38;44.50;95526.44;4193190;28;20087;-74
2023/10/11 09:37:33;;;;;;;12.05;6.30;;;;;;;20.45;44.30;95529.91;4186441;28;20052;-72
2023/10/11 09:39:38;;;;;;;38.55;28.10;;;;;;;20.52;44.19;95529.13;4188941;28;20121;-75
2023/10/11 09:41:44;;;;;;;11.32;6.68;;;;;;;20.66;44.15;95526.31;4209547;28;20051;-74
2023/10/11 09:43:48;;;;;;;12.48;5.95;;;;;;;20.80;43.85;95527.19;4191973;28;20501;-74
2023/10/11 09:45:53;;;;;;;13.85;5.72;;;;;;;20.82;43.56;95517.16;4209935;28;20163;-74
2023/10/11 09:48:05;;;;;;;16.27;5.57;;;;;;;20.82;43.46;95516.31;4194735;28;20139;-74
2023/10/11 09:50:15;;;;;;;10.10;5.88;;;;;;;20.80;43.25;95519.19;4204366;28;20048;-75
2023/10/11 09:52:18;;;;;;;14.70;5.30;;;;;;;20.86;43.28;95518.38;4207176;28;20087;-72
2023/10/11 09:54:20;;;;;;;7.82;5.13;;;;;;;20.88;43.43;95514.69;4211030;28;20139;-75
2023/10/11 09:56:35;;;;;;;11.65;5.60;;;;;;;20.94;43.34;95520.03;4193669;28;20051;-74
2023/10/11 09:58:43;;;;;;;11.15;5.18;;;;;;;20.97;43.50;95519.63;4201288;28;20059;-73
2023/10/11 10:01:15;;;;;;;15.18;5.70;;;;;;;21.07;43.26;95519.22;4223364;28;20048;-76
2023/10/11 10:03:17;;;;;;;9.52;5.10;;;;;;;21.02;42.80;95511.03;4202213;28;20060;-74
2023/10/11 10:05:22;;;;;;;8.20;4.78;;;;;;;21.03;43.11;95508.13;4208637;28;20543;-74
2023/10/11 10:09:53;;;;;;;9.23;4.53;;;;;;;21.00;42.88;95505.06;4210804;28;20153;-77
2023/10/11 10:12:09;;;;;;;10.70;5.05;;;;;;;20.97;43.07;95498.31;4210759;28;20056;-74
2023/10/11 10:14:30;;;;;;;8.17;4.90;;;;;;;21.15;42.99;95497.69;4190320;28;20084;-73
2023/10/11 10:17:10;;;;;;;8.35;4.78;;;;;;;21.17;42.78;95492.97;4212205;28;20131;-73
2023/10/11 10:19:25;;;;;;;13.25;5.25;;;;;;;20.93;42.66;95485.59;4178091;28;20051;-73
2023/10/11 10:22:27;;;;;;;6.50;4.60;;;;;;;20.28;43.72;95494.03;4211599;28;20093;-75
2023/10/11 10:24:31;;;;;;;17.95;5.45;;;;;;;20.51;43.99;95490.22;4159508;28;20494;-73
2023/10/11 10:26:33;;;;;;;16.88;5.28;;;;;;;20.71;43.75;95488.44;4211807;28;20155;-76
2023/10/11 10:28:47;;;;;;;12.57;5.05;;;;;;;20.94;43.42;95473.94;4183850;28;20135;-75
2023/10/11 10:31:17;;;;;;;6.53;4.53;;;;;;;21.15;42.52;95478.25;4208848;28;20063;-74
2023/10/11 10:33:23;;;;;;;12.65;4.65;;;;;;;21.31;42.35;95471.66;4211859;28;20404;-75